Terminal Aerodrome Forecast
Issued by NWS Sioux Falls, SD

Home | Current Version | Previous Version | Text Only | Print | Product List | Glossary Off
Versions: 1 2 3 4 5 6 7 8 9 10 11 12 13 14 15

000
FTUS43 KFSD 261721
TAFSUX
TAF
KSUX 261721Z 2618/2718 33018G26KT P6SM OVC018
     FM270200 33010KT P6SM BKN035
     FM270500 32009KT P6SM SCT035=

USA.gov is the U.S. government's official web portal to all federal, state and local government web resources and services.